createdAt,value
2019-05-19T00:01:16.177Z,86.87
2019-05-19T00:03:45.543Z,86.97
2019-05-19T00:06:15.010Z,87.31
2019-05-19T00:08:44.439Z,87.51
2019-05-19T00:11:13.827Z,87.69
2019-05-19T00:13:43.238Z,87.94
2019-05-19T00:16:12.732Z,88.04
2019-05-19T00:18:42.115Z,88.19
2019-05-19T00:21:11.494Z,87.91
2019-05-19T00:23:40.960Z,87.94
2019-05-19T00:26:10.408Z,88.12
2019-05-19T00:28:39.718Z,87.63
2019-05-19T00:31:09.008Z,87.90
2019-05-19T00:33:38.399Z,87.75
2019-05-19T00:36:07.781Z,87.35
2019-05-19T00:38:37.256Z,87.33
2019-05-19T00:41:06.640Z,87.35
2019-05-19T00:43:36.022Z,87.42
2019-05-19T00:46:05.587Z,86.83
2019-05-19T00:48:34.949Z,86.26
2019-05-19T00:51:04.459Z,86.36
2019-05-19T00:53:34.071Z,86.38
2019-05-19T00:56:03.749Z,86.38
2019-05-19T00:58:35.119Z,86.30
2019-05-19T01:01:04.626Z,86.30
2019-05-19T01:03:34.040Z,86.21
2019-05-19T01:06:03.396Z,85.93
2019-05-19T01:08:32.807Z,86.11
2019-05-19T01:11:02.231Z,85.98
2019-05-19T01:13:31.633Z,85.93
2019-05-19T01:16:01.044Z,85.96
2019-05-19T01:18:30.354Z,85.57
2019-05-19T01:21:00.157Z,85.71
2019-05-19T01:23:29.707Z,86.12
2019-05-19T01:25:59.037Z,85.98
2019-05-19T01:28:28.412Z,86.02
2019-05-19T01:30:57.850Z,85.90
2019-05-19T01:33:27.295Z,86.08
2019-05-19T01:35:56.667Z,85.89
2019-05-19T01:38:26.080Z,86.21
2019-05-19T01:40:56.214Z,86.37
2019-05-19T01:43:25.596Z,86.47
2019-05-19T01:45:54.969Z,86.64
2019-05-19T01:48:24.206Z,86.83
2019-05-19T01:50:53.623Z,85.90
2019-05-19T01:53:22.999Z,86.25
2019-05-19T01:55:52.360Z,86.38
2019-05-19T01:58:21.764Z,86.52
2019-05-19T02:00:51.200Z,86.70
2019-05-19T02:03:20.569Z,87.48
2019-05-19T02:05:49.888Z,87.76
2019-05-19T02:08:19.277Z,88.31
2019-05-19T02:10:49.067Z,88.68
2019-05-19T02:13:18.477Z,88.62
2019-05-19T02:15:48.043Z,87.81
2019-05-19T02:18:17.414Z,88.03
2019-05-19T02:20:46.821Z,88.23
2019-05-19T02:23:16.191Z,88.29
2019-05-19T02:25:45.579Z,88.65
2019-05-19T02:28:14.993Z,88.61
2019-05-19T02:30:44.413Z,88.62
2019-05-19T02:33:13.694Z,88.63
2019-05-19T02:35:43.032Z,88.19
2019-05-19T02:38:12.422Z,88.02
2019-05-19T02:40:43.419Z,88.46
2019-05-19T02:43:13.443Z,88.09
2019-05-19T02:45:43.306Z,88.46
2019-05-19T02:48:13.884Z,87.70
2019-05-19T02:50:52.092Z,87.95
2019-05-19T02:53:19.328Z,88.59
2019-05-19T02:55:50.003Z,88.81
2019-05-19T02:58:20.146Z,88.92
2019-05-19T03:00:49.410Z,88.62
2019-05-19T03:03:18.631Z,88.21
2019-05-19T03:05:48.235Z,88.67
2019-05-19T03:08:17.610Z,87.97
2019-05-19T03:10:47.023Z,87.59
2019-05-19T03:13:16.361Z,87.80
2019-05-19T03:15:45.652Z,87.98
2019-05-19T03:18:14.938Z,88.07
2019-05-19T03:20:44.209Z,88.18
2019-05-19T03:23:13.697Z,88.35
2019-05-19T03:25:44.283Z,87.92
2019-05-19T03:28:13.767Z,87.15
2019-05-19T03:30:50.534Z,87.36
2019-05-19T03:33:24.451Z,87.86
2019-05-19T03:35:53.818Z,88.02
2019-05-19T03:38:23.212Z,87.67
2019-05-19T03:40:52.581Z,87.68
2019-05-19T03:43:22.749Z,87.50
2019-05-19T03:45:52.131Z,87.87
2019-05-19T03:48:21.546Z,87.79
2019-05-19T03:50:50.850Z,88.08
2019-05-19T03:53:20.229Z,87.73
2019-05-19T03:55:49.615Z,87.50
2019-05-19T03:58:18.833Z,86.11
2019-05-19T04:00:48.154Z,85.51
2019-05-19T04:03:17.599Z,85.36
2019-05-19T04:05:46.900Z,84.50
2019-05-19T04:08:16.213Z,84.52
2019-05-19T04:10:45.620Z,84.91
2019-05-19T04:13:14.990Z,84.70
2019-05-19T04:15:44.224Z,83.78
2019-05-19T04:18:13.581Z,83.44
2019-05-19T04:20:43.242Z,82.94
2019-05-19T04:23:12.612Z,82.33
2019-05-19T04:25:42.047Z,82.56
2019-05-19T04:28:11.421Z,82.12
2019-05-19T04:30:40.772Z,82.50
2019-05-19T04:33:10.220Z,81.90
2019-05-19T04:35:39.534Z,81.53
2019-05-19T04:38:08.854Z,80.84
2019-05-19T04:40:44.470Z,80.40
2019-05-19T04:43:13.761Z,79.65
2019-05-19T04:45:43.065Z,79.46
2019-05-19T04:48:12.393Z,78.94
2019-05-19T04:50:41.771Z,78.57
2019-05-19T04:53:11.076Z,77.83
2019-05-19T04:55:40.406Z,78.17
2019-05-19T04:58:09.790Z,76.88
2019-05-19T05:00:39.148Z,75.21
2019-05-19T05:03:08.628Z,75.74
2019-05-19T05:05:37.930Z,74.90
2019-05-19T05:08:07.369Z,74.18
2019-05-19T05:10:36.700Z,73.20
2019-05-19T05:13:06.064Z,73.60
2019-05-19T05:15:35.391Z,73.82
2019-05-19T05:18:04.777Z,72.46
2019-05-19T05:20:34.284Z,72.65
2019-05-19T05:23:03.594Z,72.89
2019-05-19T05:25:33.029Z,71.91
2019-05-19T05:28:02.387Z,71.69
2019-05-19T05:30:31.689Z,71.09
2019-05-19T05:33:01.111Z,70.10
2019-05-19T05:35:30.558Z,70.17
2019-05-19T05:37:59.847Z,70.36
2019-05-19T05:40:47.408Z,69.73
2019-05-19T05:43:16.872Z,68.79
2019-05-19T05:45:46.243Z,69.16
2019-05-19T05:48:16.245Z,68.73
2019-05-19T05:50:46.373Z,69.14
2019-05-19T05:53:15.781Z,67.67
2019-05-19T05:55:47.831Z,67.96
2019-05-19T05:58:17.148Z,67.89
2019-05-19T06:00:46.857Z,66.70
2019-05-19T06:03:16.080Z,65.35
2019-05-19T06:05:45.448Z,65.70
2019-05-19T06:08:14.789Z,64.81
2019-05-19T06:10:44.209Z,64.72
2019-05-19T06:13:13.849Z,64.01
2019-05-19T06:15:43.227Z,64.17
2019-05-19T06:18:12.604Z,63.13
2019-05-19T06:20:41.918Z,62.44
2019-05-19T06:23:11.342Z,62.34
2019-05-19T06:25:52.900Z,61.79
2019-05-19T06:28:22.312Z,61.67
2019-05-19T06:30:51.694Z,61.65
2019-05-19T06:33:21.097Z,60.59
2019-05-19T06:35:51.561Z,61.23
2019-05-19T06:38:21.115Z,60.44
2019-05-19T06:40:50.500Z,61.16
2019-05-19T06:43:19.924Z,60.23
2019-05-19T06:45:50.189Z,58.58
2019-05-19T06:48:19.968Z,56.59
2019-05-19T06:50:49.351Z,58.11
2019-05-19T06:53:18.750Z,56.83
2019-05-19T06:55:48.072Z,56.44
2019-05-19T06:58:17.443Z,55.77
2019-05-19T07:00:46.762Z,54.59
2019-05-19T07:03:16.173Z,52.53
2019-05-19T07:05:46.771Z,51.49
2019-05-19T07:08:15.988Z,51.46
2019-05-19T07:10:45.249Z,53.08
2019-05-19T07:13:14.622Z,50.75
2019-05-19T07:15:43.976Z,50.62
2019-05-19T07:18:13.285Z,49.46
2019-05-19T07:20:42.510Z,49.13
2019-05-19T07:23:11.938Z,49.61
2019-05-19T07:25:53.398Z,48.94
2019-05-19T07:28:22.770Z,48.10
2019-05-19T07:30:52.068Z,47.33
2019-05-19T07:33:21.411Z,48.35
2019-05-19T07:35:50.773Z,47.50
2019-05-19T07:38:20.144Z,46.20
2019-05-19T07:40:58.549Z,46.69
2019-05-19T07:43:27.755Z,45.50
2019-05-19T07:45:57.112Z,45.87
2019-05-19T07:48:26.510Z,45.54
2019-05-19T07:50:55.829Z,46.69
2019-05-19T07:53:25.107Z,44.96
2019-05-19T07:55:54.427Z,45.68
2019-05-19T07:58:23.701Z,46.01
2019-05-19T08:00:53.006Z,47.76
2019-05-19T08:03:22.353Z,47.24
2019-05-19T08:05:51.634Z,45.20
2019-05-19T08:08:22.539Z,45.26
2019-05-19T08:10:57.888Z,44.40
2019-05-19T08:13:27.267Z,45.11
2019-05-19T08:15:56.628Z,45.91
2019-05-19T08:18:26.055Z,45.18
2019-05-19T08:20:55.331Z,45.94
2019-05-19T08:23:24.615Z,44.73
2019-05-19T08:25:54.026Z,43.24
2019-05-19T08:28:23.245Z,42.41
2019-05-19T08:30:52.527Z,40.86
2019-05-19T08:33:22.121Z,40.82
2019-05-19T08:35:51.977Z,42.06
2019-05-19T08:38:21.376Z,42.23
2019-05-19T08:41:03.037Z,41.15
2019-05-19T08:43:32.500Z,39.92
2019-05-19T08:46:02.764Z,38.53
2019-05-19T08:48:32.207Z,39.25
2019-05-19T08:51:01.587Z,40.29
2019-05-19T08:53:30.973Z,41.76
2019-05-19T08:56:03.133Z,40.79
2019-05-19T08:58:32.494Z,40.27
2019-05-19T09:01:01.833Z,40.27
2019-05-19T09:03:31.192Z,40.47
2019-05-19T09:06:00.669Z,41.38
2019-05-19T09:08:30.062Z,38.73
2019-05-19T09:10:59.376Z,39.00
2019-05-19T09:13:29.021Z,39.56
2019-05-19T09:15:58.575Z,39.44
2019-05-19T09:18:28.107Z,39.31
2019-05-19T09:20:57.466Z,39.73
2019-05-19T09:23:27.452Z,39.72
2019-05-19T09:26:10.048Z,40.95
2019-05-19T09:28:39.379Z,40.01
2019-05-19T09:31:08.871Z,40.58
2019-05-19T09:33:38.306Z,42.05
2019-05-19T09:36:07.705Z,41.95
2019-05-19T09:38:37.081Z,41.60
2019-05-19T09:41:06.448Z,41.21
2019-05-19T09:43:35.871Z,41.14
2019-05-19T09:46:05.730Z,41.64
2019-05-19T09:48:35.281Z,43.40
2019-05-19T09:51:04.812Z,44.20
2019-05-19T09:53:34.160Z,41.70
2019-05-19T09:56:09.579Z,40.21
2019-05-19T09:58:38.947Z,39.28
2019-05-19T10:01:08.508Z,39.40
2019-05-19T10:03:37.829Z,39.09
2019-05-19T10:06:07.224Z,39.54
2019-05-19T10:08:39.716Z,40.12
2019-05-19T10:11:45.482Z,41.44
2019-05-19T10:14:14.784Z,41.44
2019-05-19T10:16:44.242Z,42.38
2019-05-19T10:19:13.622Z,42.64
2019-05-19T10:21:43.038Z,43.36
2019-05-19T10:24:12.609Z,44.10
2019-05-19T10:26:41.878Z,44.60
2019-05-19T10:29:11.175Z,44.55
2019-05-19T10:31:40.546Z,44.64
2019-05-19T10:34:09.944Z,44.75
2019-05-19T10:36:39.304Z,44.41
2019-05-19T10:39:08.825Z,42.92
2019-05-19T10:41:38.217Z,43.37
2019-05-19T10:44:07.509Z,43.72
2019-05-19T10:46:36.896Z,44.12
2019-05-19T10:49:06.258Z,43.97
2019-05-19T10:51:35.472Z,44.28
2019-05-19T10:54:04.907Z,44.47
2019-05-19T10:56:34.270Z,44.82
2019-05-19T10:59:03.638Z,44.83
2019-05-19T11:01:33.119Z,45.54
2019-05-19T11:04:02.481Z,45.52
2019-05-19T11:06:31.837Z,45.51
2019-05-19T11:09:01.202Z,46.24
2019-05-19T11:11:30.646Z,45.61
2019-05-19T11:14:00.008Z,46.13
2019-05-19T11:16:29.403Z,45.84
2019-05-19T11:18:58.733Z,46.49
2019-05-19T11:21:28.233Z,45.69
2019-05-19T11:23:57.567Z,45.47
2019-05-19T11:26:26.864Z,44.57
2019-05-19T11:28:56.334Z,43.55
2019-05-19T11:31:25.723Z,42.60
2019-05-19T11:33:55.091Z,41.77
2019-05-19T11:36:24.524Z,41.18
2019-05-19T11:38:53.827Z,41.61
2019-05-19T11:41:23.131Z,40.18
2019-05-19T11:43:52.481Z,38.97
2019-05-19T11:46:21.936Z,39.51
2019-05-19T11:48:51.900Z,41.00
2019-05-19T11:51:21.391Z,40.63
2019-05-19T11:53:50.721Z,41.24
2019-05-19T11:56:20.096Z,41.71
2019-05-19T11:58:49.588Z,42.43
2019-05-19T12:01:18.968Z,42.84
2019-05-19T12:03:48.274Z,42.53
2019-05-19T12:06:17.628Z,43.25
2019-05-19T12:08:47.170Z,43.05
2019-05-19T12:11:18.771Z,42.82
2019-05-19T12:13:48.225Z,42.73
2019-05-19T12:16:17.669Z,43.57
2019-05-19T12:18:46.947Z,43.74
2019-05-19T12:21:16.335Z,43.24
2019-05-19T12:23:45.735Z,43.28
2019-05-19T12:26:23.213Z,42.25
2019-05-19T12:28:46.032Z,42.54
2019-05-19T12:31:15.370Z,42.90
2019-05-19T12:33:52.031Z,43.38
2019-05-19T12:36:15.915Z,43.53
2019-05-19T12:38:45.339Z,42.65
2019-05-19T12:41:24.950Z,41.81
2019-05-19T12:43:54.515Z,41.60
2019-05-19T12:46:23.858Z,40.73
2019-05-19T12:48:53.223Z,40.56
2019-05-19T12:51:22.844Z,39.10
2019-05-19T12:53:52.327Z,37.51
2019-05-19T12:56:21.686Z,37.14
2019-05-19T12:58:51.078Z,38.33
2019-05-19T13:01:21.987Z,38.07
2019-05-19T13:03:51.452Z,38.28
2019-05-19T13:06:22.259Z,37.92
2019-05-19T13:08:51.580Z,38.06
2019-05-19T13:11:20.967Z,37.79
2019-05-19T13:13:50.417Z,38.57
2019-05-19T13:16:19.703Z,38.32
2019-05-19T13:18:49.159Z,38.65
2019-05-19T13:21:18.972Z,38.74
2019-05-19T13:23:48.320Z,39.41
2019-05-19T13:26:17.702Z,39.34
2019-05-19T13:28:47.029Z,39.90
2019-05-19T13:31:16.449Z,40.59
2019-05-19T13:33:45.869Z,40.40
2019-05-19T13:36:15.331Z,40.06
2019-05-19T13:38:44.696Z,39.98
2019-05-19T13:41:14.010Z,40.12
2019-05-19T13:43:43.434Z,40.40
2019-05-19T13:46:12.861Z,40.27
2019-05-19T13:48:42.257Z,39.50
2019-05-19T13:51:11.651Z,39.66
2019-05-19T13:53:41.075Z,39.83
2019-05-19T13:56:31.250Z,40.11
2019-05-19T13:59:00.614Z,40.96
2019-05-19T14:01:30.012Z,43.03
2019-05-19T14:03:59.496Z,43.89
2019-05-19T14:06:28.984Z,44.40
2019-05-19T14:08:58.385Z,44.64
2019-05-19T14:11:27.864Z,45.55
2019-05-19T14:13:57.273Z,46.04
2019-05-19T14:16:26.675Z,45.95
2019-05-19T14:18:56.015Z,46.47
2019-05-19T14:21:25.518Z,47.07
2019-05-19T14:23:54.851Z,47.57
2019-05-19T14:26:26.928Z,47.97
2019-05-19T14:28:56.295Z,48.34
2019-05-19T14:31:25.647Z,48.56
2019-05-19T14:33:55.044Z,48.09
2019-05-19T14:36:24.275Z,47.73
2019-05-19T14:38:55.277Z,48.35
2019-05-19T14:41:33.854Z,48.62
2019-05-19T14:44:04.233Z,48.76
2019-05-19T14:46:33.632Z,48.88
2019-05-19T14:49:03.141Z,48.86
2019-05-19T14:51:32.609Z,49.03
2019-05-19T14:54:02.080Z,48.34
2019-05-19T14:56:33.700Z,48.80
2019-05-19T14:59:02.733Z,49.26
2019-05-19T15:01:32.182Z,49.56
2019-05-19T15:04:01.602Z,49.86
2019-05-19T15:06:31.018Z,50.32
2019-05-19T15:09:00.384Z,50.81
2019-05-19T15:11:29.812Z,51.22
2019-05-19T15:13:59.201Z,51.79
2019-05-19T15:16:28.514Z,51.86
2019-05-19T15:18:57.848Z,51.72
2019-05-19T15:21:27.324Z,52.35
2019-05-19T15:23:56.735Z,52.59
2019-05-19T15:26:26.134Z,52.37
2019-05-19T15:28:55.424Z,52.22
2019-05-19T15:31:24.786Z,52.31
2019-05-19T15:33:54.904Z,52.85
2019-05-19T15:36:24.350Z,52.96
2019-05-19T15:38:53.778Z,53.12
2019-05-19T15:41:35.487Z,53.40
2019-05-19T15:44:04.844Z,53.74
2019-05-19T15:46:34.226Z,53.82
2019-05-19T15:49:03.654Z,53.87
2019-05-19T15:51:37.790Z,53.80
2019-05-19T15:54:05.819Z,53.57
2019-05-19T15:56:35.150Z,53.77
2019-05-19T15:59:04.565Z,53.99
2019-05-19T16:01:33.971Z,54.18
2019-05-19T16:04:03.378Z,54.48
2019-05-19T16:06:32.805Z,54.58
2019-05-19T16:09:02.276Z,54.78
2019-05-19T16:11:33.233Z,54.81
2019-05-19T16:14:03.261Z,55.01
2019-05-19T16:16:32.774Z,55.38
2019-05-19T16:19:02.183Z,55.90
2019-05-19T16:21:31.747Z,56.07
2019-05-19T16:24:01.066Z,56.11
2019-05-19T16:26:39.331Z,56.08
2019-05-19T16:29:08.649Z,55.95
2019-05-19T16:31:38.065Z,55.87
2019-05-19T16:34:07.473Z,56.21
2019-05-19T16:36:36.823Z,56.55
2019-05-19T16:39:07.835Z,56.80
2019-05-19T16:41:40.220Z,56.79
2019-05-19T16:44:09.701Z,57.27
2019-05-19T16:46:39.303Z,57.60
2019-05-19T16:49:09.704Z,57.80
2019-05-19T16:51:42.067Z,58.02
2019-05-19T16:54:13.052Z,58.29
2019-05-19T16:56:42.345Z,58.41
2019-05-19T16:59:11.622Z,58.78
2019-05-19T17:01:41.795Z,59.25
2019-05-19T17:04:11.185Z,59.65
2019-05-19T17:06:40.506Z,60.11
2019-05-19T17:09:09.978Z,60.32
2019-05-19T17:11:39.339Z,60.63
2019-05-19T17:14:08.699Z,61.17
2019-05-19T17:16:38.165Z,61.32
2019-05-19T17:19:07.742Z,61.56
2019-05-19T17:21:37.330Z,61.97
2019-05-19T17:24:06.711Z,61.77
2019-05-19T17:26:45.120Z,62.08
2019-05-19T17:29:14.610Z,63.11
2019-05-19T17:31:44.300Z,63.35
2019-05-19T17:34:15.240Z,63.88
2019-05-19T17:36:44.574Z,65.25
2019-05-19T17:39:14.066Z,65.89
2019-05-19T17:41:43.607Z,66.86
2019-05-19T17:44:12.974Z,68.92
2019-05-19T17:46:42.591Z,69.29
2019-05-19T17:49:11.990Z,68.97
2019-05-19T17:51:41.488Z,70.92
2019-05-19T17:54:10.865Z,76.66
2019-05-19T17:56:45.227Z,79.09
2019-05-19T17:59:16.799Z,80.56
2019-05-19T18:01:46.310Z,81.53
2019-05-19T18:04:15.700Z,82.23
2019-05-19T18:06:45.359Z,83.12
2019-05-19T18:09:15.536Z,84.14
2019-05-19T18:11:44.948Z,84.75
2019-05-19T18:14:14.208Z,86.49
2019-05-19T18:16:43.617Z,85.50
2019-05-19T18:19:13.011Z,84.87
2019-05-19T18:21:42.338Z,85.23
2019-05-19T18:24:11.882Z,84.99
2019-05-19T18:26:49.046Z,83.57
2019-05-19T18:29:30.568Z,83.36
2019-05-19T18:31:49.606Z,84.32
2019-05-19T18:34:19.744Z,84.13
2019-05-19T18:36:49.196Z,84.32
2019-05-19T18:39:18.605Z,85.26
2019-05-19T18:41:49.621Z,86.69
2019-05-19T18:44:19.046Z,87.51
2019-05-19T18:46:48.551Z,88.26
2019-05-19T18:49:18.303Z,88.57
2019-05-19T18:51:48.107Z,89.12
2019-05-19T18:54:17.553Z,89.91
2019-05-19T18:56:47.049Z,90.27
2019-05-19T18:59:16.502Z,90.55
2019-05-19T19:01:46.288Z,90.71
2019-05-19T19:04:16.080Z,90.64
2019-05-19T19:06:46.086Z,90.75
2019-05-19T19:09:15.672Z,91.20
2019-05-19T19:11:45.488Z,91.24
2019-05-19T19:14:15.048Z,91.50
2019-05-19T19:16:45.848Z,91.41
2019-05-19T19:19:16.460Z,91.09
2019-05-19T19:21:45.822Z,90.71
2019-05-19T19:24:15.647Z,90.49
2019-05-19T19:26:55.378Z,90.69
2019-05-19T19:29:25.082Z,90.57
2019-05-19T19:31:54.550Z,90.60
2019-05-19T19:34:24.578Z,90.76
2019-05-19T19:36:54.137Z,90.94
2019-05-19T19:39:23.701Z,90.75
2019-05-19T19:41:53.330Z,90.30
2019-05-19T19:44:23.202Z,89.97
2019-05-19T19:46:53.902Z,89.93
2019-05-19T19:49:25.320Z,89.81
2019-05-19T19:51:55.109Z,89.77
2019-05-19T19:54:24.939Z,89.14
2019-05-19T19:57:01.434Z,88.73
2019-05-19T19:59:31.369Z,88.79
2019-05-19T20:02:01.346Z,88.79
2019-05-19T20:04:32.583Z,88.71
2019-05-19T20:07:02.558Z,88.68
2019-05-19T20:09:32.148Z,88.48
2019-05-19T20:12:01.481Z,88.61
2019-05-19T20:14:30.887Z,88.11
2019-05-19T20:17:00.757Z,88.33
2019-05-19T20:19:30.767Z,88.49
2019-05-19T20:22:00.299Z,88.35
2019-05-19T20:24:30.030Z,89.08
2019-05-19T20:26:59.788Z,89.23
2019-05-19T20:29:29.501Z,89.46
2019-05-19T20:31:59.147Z,90.03
2019-05-19T20:34:29.033Z,89.71
2019-05-19T20:36:59.379Z,90.05
2019-05-19T20:39:30.496Z,90.21
2019-05-19T20:42:06.845Z,89.48
2019-05-19T20:44:36.715Z,89.38
2019-05-19T20:47:06.802Z,89.73
2019-05-19T20:49:36.314Z,90.72
2019-05-19T20:52:06.023Z,90.69
2019-05-19T20:54:35.611Z,90.38
2019-05-19T20:57:05.099Z,90.44
2019-05-19T20:59:35.156Z,90.29
2019-05-19T21:02:04.790Z,90.45
2019-05-19T21:04:34.299Z,89.99
2019-05-19T21:07:03.742Z,89.87
2019-05-19T21:09:33.254Z,90.05
2019-05-19T21:12:03.107Z,90.33
2019-05-19T21:14:33.161Z,90.56
2019-05-19T21:17:06.178Z,90.02
2019-05-19T21:19:35.675Z,90.25
2019-05-19T21:22:05.093Z,90.10
2019-05-19T21:24:34.693Z,90.30
2019-05-19T21:27:04.185Z,90.15
2019-05-19T21:29:33.717Z,90.10
2019-05-19T21:32:03.194Z,90.03
2019-05-19T21:34:32.590Z,89.63
2019-05-19T21:37:01.956Z,89.73
2019-05-19T21:39:31.522Z,89.11
2019-05-19T21:42:00.876Z,89.17
2019-05-19T21:44:30.218Z,89.27
2019-05-19T21:47:00.208Z,89.40
2019-05-19T21:49:29.557Z,89.45
2019-05-19T21:51:59.153Z,89.58
2019-05-19T21:54:28.562Z,89.68
2019-05-19T21:57:10.007Z,89.88
2019-05-19T21:59:39.391Z,89.86
2019-05-19T22:02:08.839Z,89.73
2019-05-19T22:04:38.239Z,89.65
2019-05-19T22:07:09.166Z,89.57
2019-05-19T22:09:38.585Z,89.56
2019-05-19T22:12:08.022Z,89.79
2019-05-19T22:14:37.503Z,89.84
2019-05-19T22:17:07.003Z,89.65
2019-05-19T22:19:36.372Z,90.04
2019-05-19T22:22:05.770Z,90.28
2019-05-19T22:24:35.147Z,90.47
2019-05-19T22:27:04.609Z,90.36
2019-05-19T22:29:33.846Z,90.34
2019-05-19T22:32:03.421Z,89.99
2019-05-19T22:34:32.683Z,89.73
2019-05-19T22:37:02.015Z,89.58
2019-05-19T22:39:31.453Z,89.46
2019-05-19T22:42:00.821Z,89.51
2019-05-19T22:44:30.182Z,89.76
2019-05-19T22:46:59.498Z,89.90
2019-05-19T22:49:28.918Z,90.13
2019-05-19T22:51:58.251Z,90.50
2019-05-19T22:54:27.729Z,90.26
2019-05-19T22:56:57.089Z,90.33
2019-05-19T22:59:26.565Z,90.38
2019-05-19T23:01:55.896Z,90.35
2019-05-19T23:04:25.314Z,90.44
2019-05-19T23:06:54.720Z,90.44
2019-05-19T23:09:24.118Z,90.75
2019-05-19T23:11:53.577Z,90.69
2019-05-19T23:14:22.915Z,90.55
2019-05-19T23:16:52.220Z,90.84
2019-05-19T23:19:21.563Z,90.63
2019-05-19T23:21:50.881Z,90.45
2019-05-19T23:24:20.332Z,90.16
2019-05-19T23:26:49.738Z,90.05
2019-05-19T23:29:19.043Z,90.20
2019-05-19T23:31:48.415Z,90.18
2019-05-19T23:34:17.861Z,90.03
2019-05-19T23:36:47.239Z,89.89
2019-05-19T23:39:16.485Z,89.54
2019-05-19T23:41:45.885Z,89.61
2019-05-19T23:44:15.243Z,89.56
2019-05-19T23:46:44.687Z,89.53
2019-05-19T23:49:13.971Z,89.73
2019-05-19T23:51:43.274Z,89.74
2019-05-19T23:54:12.572Z,89.91
2019-05-19T23:56:41.915Z,89.92
2019-05-19T23:59:11.215Z,90.26
